Time;durP1;ratioP1;P1;durP2;ratioP2;P2;SDS_P1;SDS_P2;PMS_P1;PMS_P2;Temp;Humidity;BMP_temperature;BMP_pressure;BME280_temperature;BME280_humidity;BME280_pressure;Samples;Min_cycle;Max_cycle;Signal;HPM_P1;HPM_P2
2023/12/06 00:00:13;;;;;;;50.03;30.52;;;0.00;93.80;;;;;;5072118;28;20063;-52
2023/12/06 00:02:39;;;;;;;46.90;30.63;;;0.00;93.70;;;;;;5090821;28;20485;-48
2023/12/06 00:05:05;;;;;;;45.83;28.02;;;0.00;93.80;;;;;;5092866;28;20028;-47
2023/12/06 00:07:33;;;;;;;46.47;28.73;;;0.00;93.70;;;;;;5092302;28;20028;-45
2023/12/06 00:10:01;;;;;;;45.20;29.67;;;0.00;93.80;;;;;;5082685;28;20039;-44
2023/12/06 00:12:28;;;;;;;46.08;29.23;;;0.00;93.80;;;;;;5076381;28;20480;-44
2023/12/06 00:15:00;;;;;;;42.05;30.38;;;0.00;93.80;;;;;;5075298;28;20043;-44
2023/12/06 00:17:27;;;;;;;45.17;29.35;;;0.00;93.80;;;;;;5067936;28;20077;-43
2023/12/06 00:19:54;;;;;;;43.67;29.23;;;0.00;93.80;;;;;;5075801;28;20024;-44
2023/12/06 00:22:24;;;;;;;47.10;28.58;;;0.00;93.80;;;;;;5076146;28;20343;-46
2023/12/06 00:24:53;;;;;;;42.53;29.67;;;0.00;93.90;;;;;;5093157;28;20074;-46
2023/12/06 00:27:21;;;;;;;45.25;28.05;;;0.00;93.90;;;;;;5094765;28;20335;-43
2023/12/06 00:29:49;;;;;;;41.15;27.50;;;0.00;93.90;;;;;;5056795;28;20120;-48
2023/12/06 00:32:19;;;;;;;44.53;27.15;;;0.00;93.90;;;;;;5075796;28;20043;-47
2023/12/06 00:34:47;;;;;;;41.85;26.52;;;0.00;93.90;;;;;;5075772;28;20430;-45
2023/12/06 00:37:16;;;;;;;47.47;28.15;;;0.00;94.00;;;;;;5075819;28;20040;-44
2023/12/06 00:39:47;;;;;;;44.42;27.10;;;0.00;94.10;;;;;;5077360;28;20033;-46
2023/12/06 00:42:23;;;;;;;42.08;27.75;;;0.00;94.00;;;;;;5076180;28;20032;-46
2023/12/06 00:44:52;;;;;;;44.65;27.80;;;0.00;94.00;;;;;;5075316;28;20029;-45
2023/12/06 00:47:20;;;;;;;41.22;25.80;;;0.00;94.00;;;;;;5058306;28;20032;-45
2023/12/06 00:49:51;;;;;;;38.10;25.02;;;0.10;94.10;;;;;;5057848;28;20031;-46
2023/12/06 00:52:17;;;;;;;42.15;26.02;;;0.00;94.10;;;;;;5058843;28;20433;-47
2023/12/06 00:54:47;;;;;;;39.55;25.48;;;0.10;94.10;;;;;;5075409;28;20121;-45
2023/12/06 00:57:15;;;;;;;43.08;26.27;;;0.10;94.10;;;;;;5077092;28;20024;-44
2023/12/06 00:59:44;;;;;;;39.78;25.75;;;0.10;94.00;;;;;;5074961;28;20055;-43
2023/12/06 01:02:14;;;;;;;38.95;26.10;;;0.10;94.10;;;;;;5075211;28;20086;-46
2023/12/06 01:04:41;;;;;;;40.03;27.48;;;0.10;94.10;;;;;;5069298;28;20115;-44
2023/12/06 01:07:08;;;;;;;38.85;25.90;;;0.10;94.10;;;;;;5083478;28;20024;-48
2023/12/06 01:09:35;;;;;;;40.40;26.65;;;0.10;94.20;;;;;;5077627;28;20027;-46
2023/12/06 01:12:03;;;;;;;44.63;26.88;;;0.20;94.20;;;;;;5094293;28;20107;-47
2023/12/06 01:14:30;;;;;;;39.05;24.17;;;0.10;94.10;;;;;;5069392;28;20739;-44
2023/12/06 01:16:58;;;;;;;37.15;24.48;;;0.10;94.20;;;;;;5102974;28;20036;-46
2023/12/06 01:19:24;;;;;;;44.90;29.15;;;0.20;94.30;;;;;;5100397;28;20090;-46
2023/12/06 01:21:56;;;;;;;49.65;32.75;;;0.20;94.20;;;;;;5101245;28;20032;-50
2023/12/06 01:24:22;;;;;;;51.33;31.85;;;0.20;94.30;;;;;;5094349;28;20036;-52
2023/12/06 01:26:50;;;;;;;47.85;30.60;;;0.20;94.30;;;;;;5074258;28;20065;-45
2023/12/06 01:29:17;;;;;;;55.37;32.03;;;0.20;94.30;;;;;;5087013;28;20326;-52
2023/12/06 01:31:44;;;;;;;53.97;32.97;;;0.30;94.40;;;;;;5102954;28;20277;-51
2023/12/06 01:34:10;;;;;;;52.38;31.30;;;0.30;94.30;;;;;;5088828;28;20032;-45
2023/12/06 01:36:37;;;;;;;44.17;30.95;;;0.30;94.30;;;;;;5077197;28;20127;-46
2023/12/06 01:39:04;;;;;;;49.20;31.92;;;0.20;94.30;;;;;;5074759;28;20024;-46
2023/12/06 01:41:32;;;;;;;49.88;32.03;;;0.20;94.30;;;;;;5094579;28;20035;-46
2023/12/06 01:43:58;;;;;;;51.70;31.38;;;0.30;94.40;;;;;;5080818;28;20172;-49
2023/12/06 01:46:25;;;;;;;50.20;31.02;;;0.30;94.30;;;;;;5074456;28;20358;-48
2023/12/06 01:48:54;;;;;;;54.47;32.00;;;0.30;94.40;;;;;;5074509;28;20024;-51
2023/12/06 01:51:20;;;;;;;50.85;31.92;;;0.30;94.40;;;;;;5075692;28;20130;-46
2023/12/06 01:53:48;;;;;;;49.47;30.75;;;0.30;94.40;;;;;;5074779;28;20043;-46
2023/12/06 01:56:15;;;;;;;53.30;31.38;;;0.30;94.40;;;;;;5074486;28;20068;-48
2023/12/06 01:58:44;;;;;;;50.03;31.00;;;0.30;94.40;;;;;;5063697;28;20059;-46
2023/12/06 02:01:11;;;;;;;46.65;29.92;;;0.30;94.40;;;;;;5086298;28;20097;-47
2023/12/06 02:03:37;;;;;;;47.58;29.38;;;0.30;94.40;;;;;;5073966;28;20020;-45
2023/12/06 02:06:07;;;;;;;51.65;32.13;;;0.30;94.40;;;;;;5078016;28;20039;-49
2023/12/06 02:08:35;;;;;;;49.53;31.02;;;0.30;94.50;;;;;;5090059;28;20353;-52
2023/12/06 02:11:04;;;;;;;50.13;28.98;;;0.30;94.50;;;;;;5068755;28;20028;-50
2023/12/06 02:13:32;;;;;;;51.63;31.20;;;0.30;94.60;;;;;;5076805;28;20040;-50
2023/12/06 02:16:00;;;;;;;45.90;28.08;;;0.30;94.50;;;;;;5076293;28;20043;-46
2023/12/06 02:18:32;;;;;;;47.47;28.77;;;0.30;94.50;;;;;;5058648;28;20040;-47
2023/12/06 02:20:59;;;;;;;50.63;30.45;;;0.30;94.50;;;;;;5055917;28;20032;-50
2023/12/06 02:23:40;;;;;;;46.92;28.85;;;0.30;94.60;;;;;;5080941;28;20036;-47
2023/12/06 02:26:10;;;;;;;43.30;28.70;;;0.40;94.60;;;;;;5074849;28;20477;-51
2023/12/06 02:28:37;;;;;;;45.05;29.75;;;0.30;94.60;;;;;;5057476;28;20024;-46
2023/12/06 02:31:06;;;;;;;45.63;30.02;;;0.30;94.50;;;;;;5072356;28;20074;-47
2023/12/06 02:33:37;;;;;;;52.67;33.15;;;0.30;94.60;;;;;;5084532;28;20034;-50
2023/12/06 02:36:05;;;;;;;49.55;28.95;;;0.30;94.50;;;;;;5093887;28;20031;-50
2023/12/06 02:38:33;;;;;;;46.67;28.33;;;0.30;94.60;;;;;;5074802;28;20119;-44
2023/12/06 02:41:02;;;;;;;45.90;29.60;;;0.40;94.50;;;;;;5074456;28;20059;-45
2023/12/06 02:43:39;;;;;;;50.42;29.45;;;0.40;94.60;;;;;;5088379;28;20121;-46
2023/12/06 02:46:09;;;;;;;44.53;29.85;;;0.30;94.60;;;;;;5073856;28;20512;-48
2023/12/06 02:48:40;;;;;;;47.63;28.40;;;0.40;94.60;;;;;;5073625;28;20362;-46
2023/12/06 02:51:09;;;;;;;46.75;29.85;;;0.40;94.50;;;;;;5055500;28;20036;-46
2023/12/06 02:53:37;;;;;;;47.83;31.08;;;0.40;94.60;;;;;;5073283;28;20040;-45
2023/12/06 02:56:08;;;;;;;51.38;30.52;;;0.40;94.60;;;;;;5073535;28;20032;-46
2023/12/06 02:58:34;;;;;;;48.75;29.15;;;0.40;94.60;;;;;;5082712;28;20032;-45
2023/12/06 03:01:02;;;;;;;45.70;28.63;;;0.40;94.70;;;;;;5092978;28;20109;-45
2023/12/06 03:03:28;;;;;;;48.28;30.05;;;0.40;94.70;;;;;;5087747;28;20293;-46
2023/12/06 03:05:55;;;;;;;43.67;27.58;;;0.40;94.60;;;;;;5073219;28;20016;-46
2023/12/06 03:08:22;;;;;;;43.70;28.27;;;0.40;94.60;;;;;;5073105;28;20029;-45
2023/12/06 03:10:48;;;;;;;48.42;30.45;;;0.40;94.60;;;;;;5073466;28;20035;-47
2023/12/06 03:13:15;;;;;;;47.08;28.15;;;0.40;94.70;;;;;;5077667;28;20024;-46
2023/12/06 03:15:42;;;;;;;48.85;30.80;;;0.40;94.70;;;;;;5058620;28;20356;-47
2023/12/06 03:18:09;;;;;;;46.75;29.83;;;0.40;94.70;;;;;;5092546;28;20103;-48
2023/12/06 03:20:36;;;;;;;41.70;28.92;;;0.50;94.70;;;;;;5072860;28;20033;-46
2023/12/06 03:23:03;;;;;;;41.28;27.05;;;0.50;94.60;;;;;;5076902;28;20020;-51
2023/12/06 03:25:32;;;;;;;47.03;27.42;;;0.50;94.70;;;;;;5085014;28;20036;-46
2023/12/06 03:28:03;;;;;;;45.72;27.70;;;0.50;94.70;;;;;;5073586;28;20225;-49
2023/12/06 03:30:32;;;;;;;39.63;26.08;;;0.40;94.60;;;;;;5075829;28;20046;-46
2023/12/06 03:32:58;;;;;;;46.67;29.52;;;0.40;94.70;;;;;;5074751;28;20450;-50
2023/12/06 03:35:25;;;;;;;43.55;27.80;;;0.50;94.70;;;;;;5092706;28;20372;-46
2023/12/06 03:37:53;;;;;;;46.60;28.58;;;0.50;94.70;;;;;;5093005;28;20471;-46
2023/12/06 03:40:24;;;;;;;44.72;26.00;;;0.50;94.70;;;;;;5076025;28;20064;-47
2023/12/06 03:42:50;;;;;;;38.63;25.05;;;0.40;94.60;;;;;;5077230;28;20047;-47
2023/12/06 03:45:19;;;;;;;43.75;28.70;;;0.50;94.60;;;;;;5092725;28;20472;-47
2023/12/06 03:47:48;;;;;;;42.88;27.80;;;0.50;94.60;;;;;;5075010;28;20028;-47
2023/12/06 03:50:20;;;;;;;43.20;26.02;;;0.50;94.60;;;;;;5076228;28;20445;-50
2023/12/06 03:52:49;;;;;;;41.40;28.73;;;0.50;94.60;;;;;;5095279;28;20062;-48
2023/12/06 03:55:16;;;;;;;37.20;25.15;;;0.50;94.60;;;;;;5078338;28;20032;-49
2023/12/06 03:57:44;;;;;;;40.53;26.58;;;0.50;94.60;;;;;;5095233;28;20040;-49
2023/12/06 04:00:14;;;;;;;42.30;25.95;;;0.50;94.60;;;;;;5075295;28;20047;-49
2023/12/06 04:02:40;;;;;;;37.30;25.80;;;0.50;94.50;;;;;;5074221;28;20028;-48
2023/12/06 04:05:16;;;;;;;40.65;25.58;;;0.50;94.60;;;;;;5076257;28;20016;-47
2023/12/06 04:07:42;;;;;;;38.38;25.23;;;0.50;94.60;;;;;;5076226;28;20027;-46
2023/12/06 04:10:13;;;;;;;40.40;25.63;;;0.60;94.60;;;;;;5060852;28;20024;-47
2023/12/06 04:12:41;;;;;;;38.28;24.40;;;0.60;94.60;;;;;;5086982;28;20036;-48
2023/12/06 04:15:13;;;;;;;41.83;25.40;;;0.60;94.60;;;;;;5067101;28;20037;-51
2023/12/06 04:17:42;;;;;;;38.08;25.58;;;0.60;94.60;;;;;;5056158;28;20029;-47
2023/12/06 04:20:10;;;;;;;38.70;25.85;;;0.60;94.60;;;;;;5058752;28;20036;-49
2023/12/06 04:22:38;;;;;;;36.67;24.25;;;0.70;94.60;;;;;;5076001;28;20021;-48
2023/12/06 04:25:07;;;;;;;40.50;24.75;;;0.60;94.50;;;;;;5076462;28;20025;-48
2023/12/06 04:27:33;;;;;;;36.88;23.02;;;0.60;94.60;;;;;;5058341;28;20115;-53
2023/12/06 04:29:59;;;;;;;38.65;25.42;;;0.60;94.60;;;;;;5063698;28;20123;-48
2023/12/06 04:32:26;;;;;;;38.47;26.23;;;0.60;94.60;;;;;;5063219;28;20166;-51
2023/12/06 04:34:56;;;;;;;36.85;24.77;;;0.60;94.60;;;;;;5038123;28;20037;-50
2023/12/06 04:37:23;;;;;;;38.15;24.48;;;0.60;94.60;;;;;;5038682;28;20029;-51
2023/12/06 04:39:52;;;;;;;40.13;25.35;;;0.60;94.60;;;;;;5048283;28;20033;-49
2023/12/06 04:42:18;;;;;;;41.45;25.63;;;0.60;94.50;;;;;;5055614;28;20060;-53
2023/12/06 04:44:50;;;;;;;37.70;25.52;;;0.60;94.60;;;;;;5057649;28;20044;-53
2023/12/06 04:47:17;;;;;;;34.90;22.05;;;0.70;94.60;;;;;;5055629;28;20332;-54
2023/12/06 04:49:44;;;;;;;35.92;24.33;;;0.70;94.60;;;;;;5055941;28;20025;-53
2023/12/06 04:52:10;;;;;;;37.00;23.55;;;0.70;94.60;;;;;;5063392;28;20019;-54
2023/12/06 04:54:36;;;;;;;36.10;25.33;;;0.60;94.60;;;;;;5057106;28;20040;-56
2023/12/06 04:57:03;;;;;;;39.67;23.67;;;0.60;94.60;;;;;;5055184;28;20334;-52
2023/12/06 04:59:33;;;;;;;35.20;24.10;;;0.60;94.60;;;;;;5066736;28;20500;-56
2023/12/06 05:02:03;;;;;;;39.08;25.25;;;0.70;94.70;;;;;;5091719;28;20334;-53
2023/12/06 05:04:32;;;;;;;35.08;21.95;;;0.70;94.70;;;;;;5094501;28;20036;-56
2023/12/06 05:06:59;;;;;;;30.23;21.83;;;0.60;94.60;;;;;;5092033;28;20039;-56
2023/12/06 05:09:25;;;;;;;35.20;22.27;;;0.70;94.60;;;;;;5095573;28;20479;-56
2023/12/06 05:11:53;;;;;;;38.33;23.23;;;0.70;94.70;;;;;;5076803;28;20115;-52
2023/12/06 05:14:24;;;;;;;31.98;21.08;;;0.70;94.70;;;;;;5082829;28;20326;-53
2023/12/06 05:16:50;;;;;;;35.67;23.50;;;0.80;94.70;;;;;;5087327;28;20524;-53
2023/12/06 05:19:15;;;;;;;35.40;23.92;;;0.70;94.70;;;;;;5084567;28;20060;-52
2023/12/06 05:21:41;;;;;;;35.70;23.15;;;0.80;94.60;;;;;;5065662;28;20035;-51
2023/12/06 05:24:08;;;;;;;32.35;21.80;;;0.80;94.70;;;;;;5062536;28;20036;-51
2023/12/06 05:26:35;;;;;;;32.78;23.02;;;0.80;94.70;;;;;;5082677;28;20059;-53
2023/12/06 05:29:04;;;;;;;36.08;23.50;;;0.80;94.70;;;;;;5092149;28;20099;-51
2023/12/06 05:31:31;;;;;;;33.30;23.38;;;0.80;94.60;;;;;;5083487;28;20086;-52
2023/12/06 05:34:02;;;;;;;33.42;22.08;;;0.80;94.70;;;;;;5090875;28;20024;-52
2023/12/06 05:36:29;;;;;;;35.05;22.15;;;0.80;94.70;;;;;;5098649;28;20110;-54
2023/12/06 05:38:56;;;;;;;32.63;22.05;;;0.80;94.60;;;;;;5080286;28;20036;-54
2023/12/06 05:41:24;;;;;;;33.15;21.67;;;0.80;94.70;;;;;;5078831;28;20127;-55
2023/12/06 05:43:52;;;;;;;33.15;20.98;;;0.90;94.80;;;;;;5090925;28;20024;-53
2023/12/06 05:46:20;;;;;;;33.72;22.15;;;0.90;94.70;;;;;;5096552;28;20036;-51
2023/12/06 05:48:48;;;;;;;29.55;20.88;;;0.80;94.70;;;;;;5095564;28;20023;-53
2023/12/06 05:51:17;;;;;;;35.53;23.25;;;0.90;94.70;;;;;;5098754;28;20092;-54
2023/12/06 05:53:44;;;;;;;33.90;22.40;;;0.80;94.80;;;;;;5100303;28;20032;-53
2023/12/06 05:56:10;;;;;;;33.17;21.88;;;0.80;94.70;;;;;;5101057;27;20464;-53
2023/12/06 05:58:39;;;;;;;35.75;21.92;;;0.90;94.80;;;;;;5103057;28;20043;-54
2023/12/06 06:01:07;;;;;;;34.15;21.70;;;0.90;94.80;;;;;;5100981;28;20432;-52
2023/12/06 06:03:35;;;;;;;34.47;22.15;;;0.90;94.80;;;;;;5086760;28;20032;-56
2023/12/06 06:06:06;;;;;;;31.98;22.35;;;0.90;94.80;;;;;;5077754;28;20035;-53
2023/12/06 06:08:34;;;;;;;39.92;25.38;;;0.90;94.80;;;;;;5096841;28;20038;-54
2023/12/06 06:11:08;;;;;;;31.45;21.45;;;0.90;94.80;;;;;;5075179;28;20026;-52
2023/12/06 06:13:35;;;;;;;34.15;22.45;;;0.90;94.80;;;;;;5080775;28;20038;-54
2023/12/06 06:16:01;;;;;;;35.25;23.38;;;0.80;94.80;;;;;;5084916;28;20056;-53
2023/12/06 06:18:31;;;;;;;31.58;21.63;;;0.80;94.80;;;;;;5083389;28;20511;-55
2023/12/06 06:21:05;;;;;;;30.42;21.13;;;0.80;94.80;;;;;;5072601;28;20056;-50
2023/12/06 06:23:34;;;;;;;33.20;22.77;;;0.80;94.80;;;;;;5071764;28;20116;-53
2023/12/06 06:26:03;;;;;;;31.13;22.05;;;0.80;94.80;;;;;;5053274;28;20024;-51
2023/12/06 06:28:30;;;;;;;33.13;21.73;;;0.80;94.90;;;;;;5095393;28;20073;-55
2023/12/06 06:30:57;;;;;;;32.13;21.70;;;0.80;94.90;;;;;;5103461;28;20065;-52
2023/12/06 06:33:27;;;;;;;31.02;20.15;;;0.80;94.90;;;;;;5096270;28;20119;-51
2023/12/06 06:35:54;;;;;;;30.88;20.40;;;0.80;94.90;;;;;;5103180;28;20350;-51
2023/12/06 06:38:20;;;;;;;31.55;21.50;;;0.80;94.90;;;;;;5079008;28;20131;-53
2023/12/06 06:40:47;;;;;;;31.65;21.08;;;0.80;94.90;;;;;;5090546;28;20513;-55
2023/12/06 06:43:17;;;;;;;32.30;20.92;;;0.80;95.00;;;;;;5071676;28;20020;-56
2023/12/06 06:45:44;;;;;;;31.58;21.65;;;0.80;95.00;;;;;;5083354;28;20033;-51
2023/12/06 06:48:14;;;;;;;33.10;22.05;;;0.80;95.00;;;;;;5073307;28;20024;-57
2023/12/06 06:50:39;;;;;;;30.90;22.45;;;0.80;95.00;;;;;;5083541;28;20142;-57
2023/12/06 06:53:09;;;;;;;34.53;21.98;;;0.80;95.00;;;;;;5065486;28;20449;-56
2023/12/06 06:55:36;;;;;;;;;;;0.80;95.10;;;;;;5071663;28;20080;-56
2023/12/06 06:58:03;;;;;;;29.50;20.80;;;0.80;95.10;;;;;;5079301;28;20408;-56
2023/12/06 07:00:30;;;;;;;30.20;21.95;;;0.80;95.10;;;;;;5097400;28;20050;-56
2023/12/06 07:02:59;;;;;;;34.28;22.45;;;0.90;95.10;;;;;;5095828;28;20101;-57
2023/12/06 07:05:33;;;;;;;33.63;23.83;;;0.80;95.10;;;;;;5073231;28;20047;-57
2023/12/06 07:08:01;;;;;;;34.40;22.20;;;0.80;95.10;;;;;;5089914;28;20028;-54
2023/12/06 07:10:28;;;;;;;33.70;23.50;;;0.80;95.10;;;;;;5099103;28;20032;-51
2023/12/06 07:12:55;;;;;;;33.45;22.45;;;0.80;95.10;;;;;;5077627;28;20512;-53
2023/12/06 07:15:25;;;;;;;32.65;23.27;;;0.80;95.10;;;;;;5084145;28;20093;-51
2023/12/06 07:17:55;;;;;;;37.15;24.38;;;0.80;95.10;;;;;;5106169;28;20032;-50
2023/12/06 07:20:27;;;;;;;31.85;22.67;;;0.90;95.20;;;;;;5083327;28;20124;-51
2023/12/06 07:22:54;;;;;;;30.90;21.95;;;0.90;95.20;;;;;;5084822;28;20110;-53
2023/12/06 07:25:21;;;;;;;33.38;23.10;;;0.90;95.20;;;;;;5070295;28;20028;-53
2023/12/06 07:27:48;;;;;;;34.08;23.92;;;0.90;95.20;;;;;;5091952;28;20133;-51
2023/12/06 07:30:18;;;;;;;31.98;23.23;;;0.90;95.20;;;;;;5091343;28;20028;-50
2023/12/06 07:32:45;;;;;;;30.52;22.70;;;0.90;95.20;;;;;;5076253;28;20044;-54
2023/12/06 07:35:12;;;;;;;32.42;22.88;;;0.90;95.10;;;;;;5080604;28;20350;-51
2023/12/06 07:37:41;;;;;;;33.70;22.15;;;0.90;95.10;;;;;;5089959;28;20035;-54
2023/12/06 07:40:10;;;;;;;32.92;21.98;;;0.90;95.10;;;;;;5074752;28;20387;-52
2023/12/06 07:42:39;;;;;;;30.35;20.90;;;0.90;95.10;;;;;;5086165;28;20048;-53
2023/12/06 07:45:12;;;;;;;31.33;22.77;;;0.90;95.10;;;;;;5083373;28;20024;-49
2023/12/06 07:47:41;;;;;;;31.05;21.30;;;0.90;95.20;;;;;;5068443;28;20060;-49
2023/12/06 07:50:08;;;;;;;28.20;21.17;;;0.90;95.10;;;;;;5091745;28;20024;-52
2023/12/06 07:52:36;;;;;;;30.80;21.27;;;0.90;95.20;;;;;;5055962;28;20036;-54
2023/12/06 07:55:07;;;;;;;33.20;20.67;;;0.90;95.10;;;;;;5066172;28;20125;-52
2023/12/06 07:57:36;;;;;;;31.08;20.00;;;0.90;95.20;;;;;;5064334;28;20052;-56
2023/12/06 08:00:08;;;;;;;31.65;20.52;;;0.90;95.20;;;;;;5087665;28;20098;-52
2023/12/06 08:02:39;;;;;;;31.10;19.77;;;0.90;95.20;;;;;;5084469;28;20020;-55
2023/12/06 08:05:07;;;;;;;29.98;19.90;;;0.90;95.20;;;;;;5091410;28;20398;-52
2023/12/06 08:07:34;;;;;;;27.92;20.17;;;0.90;95.20;;;;;;5085660;28;20016;-50
2023/12/06 08:10:07;;;;;;;28.80;20.65;;;0.90;95.30;;;;;;5092327;28;20024;-52
2023/12/06 08:12:37;;;;;;;28.77;20.77;;;0.90;95.20;;;;;;5089722;28;20516;-52
2023/12/06 08:15:09;;;;;;;30.83;20.40;;;0.90;95.20;;;;;;5091348;28;20056;-51
2023/12/06 08:17:39;;;;;;;31.35;20.27;;;0.90;95.10;;;;;;5086507;28;20349;-51
2023/12/06 08:20:05;;;;;;;26.80;18.80;;;0.90;95.20;;;;;;5090049;28;20031;-53
2023/12/06 08:22:35;;;;;;;26.50;20.05;;;0.90;95.10;;;;;;5089426;28;20024;-50
2023/12/06 08:25:04;;;;;;;27.15;19.17;;;0.90;95.10;;;;;;5074335;28;20024;-48
2023/12/06 08:27:34;;;;;;;24.73;18.00;;;0.90;95.20;;;;;;5084323;28;20032;-49
2023/12/06 08:30:03;;;;;;;27.10;18.25;;;0.90;95.20;;;;;;5070302;28;20293;-54
2023/12/06 08:32:33;;;;;;;24.05;17.40;;;1.00;95.20;;;;;;5072789;28;20357;-51
2023/12/06 08:35:01;;;;;;;27.70;19.10;;;1.00;95.20;;;;;;5083877;28;20060;-55
2023/12/06 08:37:31;;;;;;;26.67;18.45;;;1.00;95.10;;;;;;5077088;28;20034;-50
2023/12/06 08:39:59;;;;;;;26.17;17.90;;;1.00;95.20;;;;;;5102953;28;20103;-53
2023/12/06 08:42:27;;;;;;;26.05;18.30;;;1.00;95.10;;;;;;5091363;28;20038;-53
2023/12/06 08:44:55;;;;;;;25.13;18.27;;;1.10;95.10;;;;;;5089687;28;20391;-53
2023/12/06 08:47:23;;;;;;;27.23;18.63;;;1.10;95.10;;;;;;5096099;28;20115;-53
2023/12/06 08:49:50;;;;;;;22.92;18.40;;;1.10;95.10;;;;;;5076139;28;20405;-50
2023/12/06 08:52:17;;;;;;;25.80;18.85;;;1.10;95.10;;;;;;5089736;28;20342;-53
2023/12/06 08:54:43;;;;;;;27.02;18.35;;;1.10;95.10;;;;;;5069815;28;20524;-52
2023/12/06 08:57:11;;;;;;;24.58;17.90;;;1.10;95.10;;;;;;5101798;28;20042;-51
2023/12/06 08:59:40;;;;;;;23.92;18.58;;;1.20;95.00;;;;;;5093491;28;20155;-56
2023/12/06 09:02:06;;;;;;;25.70;18.05;;;1.20;95.00;;;;;;5086979;28;20071;-56
2023/12/06 09:04:34;;;;;;;23.98;16.27;;;1.10;95.00;;;;;;5094407;28;20090;-56
2023/12/06 09:06:59;;;;;;;26.38;18.13;;;1.10;95.00;;;;;;5091591;28;20103;-57
2023/12/06 09:09:28;;;;;;;24.17;17.98;;;1.10;95.00;;;;;;5091284;28;20119;-55
2023/12/06 09:11:58;;;;;;;27.35;18.85;;;1.10;95.00;;;;;;5094618;28;20062;-55
2023/12/06 09:14:28;;;;;;;27.05;19.42;;;1.10;94.90;;;;;;5094837;28;20034;-56
2023/12/06 09:16:58;;;;;;;27.30;19.55;;;1.20;94.80;;;;;;5088414;28;20036;-57
2023/12/06 09:19:26;;;;;;;24.25;18.58;;;1.20;95.00;;;;;;5066081;28;20046;-56
2023/12/06 09:21:55;;;;;;;26.95;18.75;;;1.20;94.80;;;;;;5063489;28;20083;-56
2023/12/06 09:24:23;;;;;;;26.60;17.30;;;1.10;94.80;;;;;;5088841;28;20139;-50
2023/12/06 09:26:50;;;;;;;24.85;19.38;;;1.20;94.90;;;;;;5093290;28;20070;-53
2023/12/06 09:29:18;;;;;;;27.55;21.35;;;1.20;94.80;;;;;;5094055;28;20016;-50
2023/12/06 09:31:46;;;;;;;27.00;19.23;;;1.20;94.80;;;;;;5094249;28;20093;-51
2023/12/06 09:34:16;;;;;;;24.17;18.45;;;1.20;94.70;;;;;;5092581;28;20441;-49
2023/12/06 09:36:50;;;;;;;27.20;18.17;;;1.30;94.80;;;;;;5099252;28;20031;-50
2023/12/06 09:39:26;;;;;;;25.13;19.27;;;1.30;94.80;;;;;;5093838;28;20346;-49
2023/12/06 09:41:53;;;;;;;27.05;21.10;;;1.40;94.70;;;;;;5083101;28;20033;-50
2023/12/06 09:44:21;;;;;;;28.58;21.13;;;1.30;94.60;;;;;;5075691;28;20161;-50
2023/12/06 09:46:53;;;;;;;27.25;21.35;;;1.30;94.50;;;;;;5075421;28;20016;-50
2023/12/06 09:49:21;;;;;;;27.95;19.05;;;1.30;94.50;;;;;;5093395;28;20024;-49
2023/12/06 09:51:50;;;;;;;25.98;17.85;;;1.30;94.60;;;;;;5089900;28;20027;-51
2023/12/06 09:54:20;;;;;;;29.20;18.83;;;1.30;94.60;;;;;;5084595;28;20089;-50
2023/12/06 09:56:49;;;;;;;25.42;20.27;;;1.40;94.50;;;;;;5090044;28;20051;-51
2023/12/06 09:59:16;;;;;;;24.05;18.17;;;1.40;94.60;;;;;;5060298;28;20031;-50
2023/12/06 10:01:41;;;;;;;25.85;19.33;;;1.40;94.50;;;;;;5098834;28;20047;-54
2023/12/06 10:04:12;;;;;;;26.88;18.42;;;1.40;94.40;;;;;;5086930;28;20150;-49
2023/12/06 10:06:39;;;;;;;24.35;18.05;;;1.40;94.40;;;;;;5079562;28;20084;-49
2023/12/06 10:09:12;;;;;;;23.75;18.08;;;1.50;94.40;;;;;;5084395;28;20119;-49
2023/12/06 10:11:39;;;;;;;23.65;17.70;;;1.40;94.30;;;;;;5074002;28;20032;-50
2023/12/06 10:14:21;;;;;;;23.13;17.33;;;1.50;94.30;;;;;;5096633;28;20080;-49
2023/12/06 10:16:47;;;;;;;23.00;17.27;;;1.50;94.20;;;;;;5069583;28;20048;-51
2023/12/06 10:19:19;;;;;;;23.13;16.90;;;1.40;94.10;;;;;;5070601;28;20173;-49
2023/12/06 10:21:49;;;;;;;19.90;16.00;;;1.40;94.10;;;;;;5056065;28;20044;-50
2023/12/06 10:24:18;;;;;;;23.85;17.35;;;1.50;94.20;;;;;;5057973;28;20043;-49
2023/12/06 10:26:49;;;;;;;24.35;17.42;;;1.50;94.20;;;;;;5086915;28;20111;-50
2023/12/06 10:29:17;;;;;;;22.33;16.75;;;1.50;94.10;;;;;;5080801;28;20115;-52
2023/12/06 10:31:45;;;;;;;20.70;16.08;;;1.50;94.00;;;;;;5073441;28;20032;-50
2023/12/06 10:34:16;;;;;;;21.40;17.33;;;1.50;94.10;;;;;;5075171;28;20540;-50
2023/12/06 10:36:55;;;;;;;;;;;1.60;94.10;;;;;;5087588;28;20037;-53
2023/12/06 10:39:25;;;;;;;22.45;17.10;;;1.60;94.10;;;;;;5070521;28;19919;-52
2023/12/06 10:42:00;;;;;;;20.85;16.92;;;1.60;94.00;;;;;;5073713;28;20047;-50
2023/12/06 10:44:29;;;;;;;22.40;16.42;;;1.70;94.00;;;;;;5077158;28;20032;-50
2023/12/06 10:46:58;;;;;;;21.92;16.58;;;1.70;93.90;;;;;;5105392;28;20055;-49
2023/12/06 10:49:27;;;;;;;22.30;17.40;;;1.70;93.90;;;;;;5082437;28;20849;-51
2023/12/06 10:51:55;;;;;;;21.02;15.95;;;1.80;94.00;;;;;;5077552;28;20851;-50
2023/12/06 10:54:33;;;;;;;23.23;18.35;;;1.70;93.80;;;;;;5101632;28;20115;-54
2023/12/06 10:57:05;;;;;;;22.02;16.20;;;1.70;93.70;;;;;;5081161;28;20368;-51
2023/12/06 10:59:49;;;;;;;22.15;17.05;;;1.70;93.70;;;;;;5081791;28;20048;-50
2023/12/06 11:02:15;;;;;;;21.88;16.25;;;1.70;93.60;;;;;;5071587;28;20131;-51
2023/12/06 11:04:57;;;;;;;22.00;16.10;;;1.60;93.60;;;;;;5084907;28;20031;-50
2023/12/06 11:07:39;;;;;;;21.02;16.98;;;1.70;93.70;;;;;;5070178;28;20036;-56
2023/12/06 11:10:32;;;;;;;27.13;19.05;;;1.70;93.70;;;;;;5084151;28;20031;-54
2023/12/06 11:13:36;;;;;;;23.55;17.98;;;1.70;93.60;;;;;;5095453;28;20032;-51
2023/12/06 11:16:23;;;;;;;23.95;17.08;;;1.80;93.60;;;;;;5095376;28;20031;-53
2023/12/06 11:18:52;;;;;;;26.60;19.58;;;1.80;93.60;;;;;;5095323;28;20020;-52
2023/12/06 11:21:22;;;;;;;23.95;16.90;;;1.80;93.60;;;;;;5097780;28;20341;-53
2023/12/06 11:23:51;;;;;;;22.90;19.20;;;1.90;93.50;;;;;;5082771;28;20024;-54
2023/12/06 11:26:17;;;;;;;27.65;21.00;;;1.90;93.50;;;;;;5073667;28;20016;-54
2023/12/06 11:28:43;;;;;;;28.88;21.00;;;1.80;93.40;;;;;;5087126;28;20039;-55
2023/12/06 11:31:16;;;;;;;25.15;19.50;;;1.80;93.40;;;;;;5074135;28;20028;-52
2023/12/06 11:33:52;;;;;;;29.10;19.88;;;1.80;93.40;;;;;;5085970;28;20044;-53
2023/12/06 11:36:24;;;;;;;27.83;20.58;;;1.80;93.40;;;;;;5076982;28;20129;-56
2023/12/06 11:38:51;;;;;;;25.92;20.05;;;1.80;93.50;;;;;;5097007;28;20119;-57
2023/12/06 11:41:22;;;;;;;25.55;20.40;;;1.90;93.50;;;;;;5077201;28;20028;-54
2023/12/06 11:43:53;;;;;;;27.02;19.67;;;1.90;93.50;;;;;;5089794;28;20020;-57
2023/12/06 11:46:25;;;;;;;26.42;19.75;;;1.90;93.50;;;;;;5071293;28;20457;-56
2023/12/06 11:48:54;;;;;;;27.25;19.80;;;1.90;93.30;;;;;;5089091;28;20050;-54
2023/12/06 11:51:24;;;;;;;26.80;19.83;;;1.90;93.30;;;;;;5068778;28;20093;-57
2023/12/06 11:53:54;;;;;;;25.05;19.52;;;1.90;93.40;;;;;;5086662;28;20036;-56
2023/12/06 11:56:28;;;;;;;25.35;20.08;;;2.00;93.30;;;;;;5073626;28;20353;-55
2023/12/06 11:58:58;;;;;;;27.95;19.92;;;1.90;93.10;;;;;;5092127;28;20036;-56
2023/12/06 12:01:26;;;;;;;23.50;19.23;;;2.00;93.20;;;;;;5080532;28;20079;-58
2023/12/06 12:03:53;;;;;;;26.77;20.85;;;2.00;93.30;;;;;;5072977;28;20024;-58
2023/12/06 12:06:20;;;;;;;23.77;19.50;;;2.00;93.10;;;;;;5062976;28;20017;-57
2023/12/06 12:08:49;;;;;;;22.75;18.75;;;2.10;93.10;;;;;;5090522;28;20016;-57
2023/12/06 12:11:17;;;;;;;27.08;20.00;;;2.10;93.10;;;;;;5092931;28;20032;-59
2023/12/06 12:13:47;;;;;;;22.83;18.85;;;2.10;93.10;;;;;;5085109;28;20051;-58
2023/12/06 12:16:15;;;;;;;22.25;17.73;;;2.20;93.20;;;;;;5090070;28;20059;-57
2023/12/06 12:18:42;;;;;;;26.95;21.02;;;2.20;93.00;;;;;;5084947;28;20107;-58
2023/12/06 12:21:19;;;;;;;23.15;19.00;;;2.20;93.00;;;;;;5088639;28;20036;-58
2023/12/06 12:23:49;;;;;;;23.73;19.05;;;2.20;92.90;;;;;;5089050;28;20107;-57
2023/12/06 12:26:18;;;;;;;21.98;18.35;;;2.20;92.90;;;;;;5094543;28;20024;-55
2023/12/06 12:28:45;;;;;;;25.77;19.25;;;2.20;92.80;;;;;;5087842;28;20114;-57
2023/12/06 12:31:35;;;;;;;24.00;18.92;;;2.20;92.70;;;;;;5076976;28;20123;-54
2023/12/06 12:34:03;;;;;;;28.38;19.35;;;2.20;92.80;;;;;;5094560;28;20097;-54
2023/12/06 12:36:31;;;;;;;27.88;19.35;;;2.20;92.80;;;;;;5093952;28;20524;-57
2023/12/06 12:39:02;;;;;;;23.25;19.00;;;2.20;92.80;;;;;;5088748;28;20024;-57
2023/12/06 12:41:32;;;;;;;26.00;19.08;;;2.20;92.80;;;;;;5094715;28;20032;-52
2023/12/06 12:44:00;;;;;;;24.00;19.23;;;2.10;92.70;;;;;;5079246;28;20040;-56
2023/12/06 12:46:28;;;;;;;23.40;19.38;;;2.10;92.70;;;;;;5082897;28;20089;-56